Home   Weather   USA   Mount Vernon   Past weeks
Flag for USA

Past Weather in Mount Vernon, New York, USA — Yesterday and Last 2 Weeks

Currently: 77 °F. Partly cloudy. (Weather station: La Guardia Airport, USA). See more current weather

Past Weather in Mount Vernon — Graph

°F

Mount Vernon Temperature Yesterday

Maximum temperature yesterday: 76 °F (at 5:16 pm)
Minimum temperature yesterday: 64 °F (at 4:51 am)
Average temperature yesterday: 71 °F

High & Low Weather Summary for the Past Weeks

 TemperatureHumidityPressure
High88 °F (Sep 15, 1:51 pm)93% (Sep 9, 12:51 pm)30.36 "Hg (Sep 9, 12:51 pm)
Low64 °F (Sep 21, 4:51 am)21% (Sep 9, 10:51 am)29.73 "Hg (Sep 9, 4:51 pm)
Average74 °F66%30.06 "Hg
* Reported Sep 7 6:51 pm — Sep 22 6:51 pm, Mount Vernon. Weather by CustomWeather, © 2021

Note: Actual official high and low records may vary slightly from our data, if they occured in-between our weather recording intervals... More about our weather records

Mount Vernon Weather History for the Previous 24 Hours

Scroll right to see more
 ConditionsComfort  
Time TempWeatherWind HumidityBarometerVisibility
6:51 pm
Wed, Sep 22
77 °FBroken clouds.16 mph74%30.00 "Hg10 mi
6:27 pm77 °FBroken clouds.14 mph74%30.00 "Hg10 mi
5:51 pm78 °FPartly sunny.13 mph74%30.00 "Hg10 mi
4:51 pm79 °FBroken clouds.17 mph69%30.01 "Hg10 mi
3:51 pm80 °FBroken clouds.16 mph64%30.01 "Hg10 mi
2:51 pm73 °FBroken clouds.16 mph79%30.03 "Hg10 mi
1:51 pm72 °FBroken clouds.14 mph81%30.05 "Hg10 mi
12:51 pm73 °FBroken clouds.15 mph81%30.08 "Hg10 mi
11:51 am74 °FBroken clouds.16 mph82%30.09 "Hg10 mi
10:51 am78 °FBroken clouds.14 mph69%30.11 "Hg10 mi
9:51 am76 °FMostly cloudy.10 mph80%30.12 "Hg10 mi
8:51 am75 °FMostly cloudy.9 mph82%30.13 "Hg10 mi
8:27 am75 °FLow clouds.10 mph82%30.13 "Hg10 mi
7:51 am74 °FLow clouds.12 mph85%30.13 "Hg10 mi
6:51 am73 °FLow clouds.13 mph88%30.14 "Hg10 mi
5:51 am73 °FMostly cloudy.8 mph88%30.14 "Hg10 mi
5:05 am73 °FLow clouds.7 mph84%30.15 "Hg10 mi
4:51 am73 °FOvercast.7 mph84%30.15 "Hg10 mi
3:51 am73 °FMostly cloudy.6 mph88%30.16 "Hg10 mi
2:51 am74 °FMostly cloudy.7 mph85%30.18 "Hg10 mi
1:51 am73 °FLow clouds.7 mph88%30.19 "Hg10 mi
12:51 am73 °FMostly cloudy.5 mph88%30.21 "Hg10 mi
12:25 am72 °FMostly cloudy.6 mph87%30.22 "Hg10 mi
11:51 pm
Tue, Sep 21
72 °FMostly cloudy.5 mph84%30.23 "Hg10 mi
11:18 pm72 °FMostly cloudy.5 mph84%30.24 "Hg10 mi
10:51 pm72 °FOvercast.8 mph84%30.24 "Hg10 mi
10:38 pm72 °FLight rain. Mostly cloudy.6 mph84%30.24 "Hg10 mi
10:02 pm72 °FMostly cloudy.8 mph84%30.25 "Hg9 mi
9:51 pm72 °FOvercast.8 mph84%30.25 "Hg7 mi
9:08 pm73 °FOvercast.9 mph76%30.26 "Hg10 mi
8:51 pm73 °FPartly cloudy.10 mph76%30.26 "Hg10 mi
Weather by CustomWeather, © 2021

See weather overview